Delburne, Canada
Current Conditions -  °F | °C
As of 2:00 AM on Monday 20 Oct 2014 (Local Time) from CYQF Reporting Station
Clear Clear  
Wind Chill: 40°   Ceiling: Unl
Heat Index: 43°   Visibility: 15mi
Dew Point: 32°   Wind: 5mph
Humidity: 66%   Direction: 190°S
Pressure: 29.63"   Gusts: NA
Location:  52.2°N, 113.23°W
Report Text: CYQF 200800Z 19004KT 15SM SKC 06/M00 A2963 RMK SLP050
Loading
Personal Weather Stations






























Interactive Weather Map New forecast layout! Learn more

10-Day Weather Forecast

Advertisements
Track Severe Weather on mobile